sensor_id;sensor_type;location;lat;lon;timestamp;P1;durP1;ratioP1;P2;durP2;ratioP2
76423;SDS011;65257;52.104;4.268;2023-07-08T00:02:12;7.25;;;2.17;;
76423;SDS011;65257;52.104;4.268;2023-07-08T00:04:38;4.43;;;2.33;;
76423;SDS011;65257;52.104;4.268;2023-07-08T00:07:10;4.20;;;2.20;;
76423;SDS011;65257;52.104;4.268;2023-07-08T00:12:25;5.72;;;2.35;;
76423;SDS011;65257;52.104;4.268;2023-07-08T00:14:53;4.45;;;2.45;;
76423;SDS011;65257;52.104;4.268;2023-07-08T00:17:19;4.65;;;2.10;;
76423;SDS011;65257;52.104;4.268;2023-07-08T00:19:46;7.30;;;2.25;;
76423;SDS011;65257;52.104;4.268;2023-07-08T00:22:13;5.93;;;2.60;;
76423;SDS011;65257;52.104;4.268;2023-07-08T00:24:41;5.13;;;2.38;;
76423;SDS011;65257;52.104;4.268;2023-07-08T00:27:10;4.68;;;2.30;;
76423;SDS011;65257;52.104;4.268;2023-07-08T00:29:46;4.95;;;2.50;;
76423;SDS011;65257;52.104;4.268;2023-07-08T00:32:14;4.07;;;2.38;;
76423;SDS011;65257;52.104;4.268;2023-07-08T00:34:46;4.72;;;2.33;;
76423;SDS011;65257;52.104;4.268;2023-07-08T00:37:12;7.63;;;2.70;;
76423;SDS011;65257;52.104;4.268;2023-07-08T00:39:38;5.75;;;2.63;;
76423;SDS011;65257;52.104;4.268;2023-07-08T00:42:17;4.20;;;2.42;;
76423;SDS011;65257;52.104;4.268;2023-07-08T00:44:44;5.90;;;2.58;;
76423;SDS011;65257;52.104;4.268;2023-07-08T00:47:12;4.07;;;1.90;;
76423;SDS011;65257;52.104;4.268;2023-07-08T00:49:42;4.80;;;2.15;;
76423;SDS011;65257;52.104;4.268;2023-07-08T00:55:06;4.50;;;2.33;;
76423;SDS011;65257;52.104;4.268;2023-07-08T00:57:35;4.15;;;2.30;;
76423;SDS011;65257;52.104;4.268;2023-07-08T01:00:07;4.60;;;2.90;;
76423;SDS011;65257;52.104;4.268;2023-07-08T01:02:49;3.60;;;2.50;;
76423;SDS011;65257;52.104;4.268;2023-07-08T01:05:21;5.63;;;2.42;;
76423;SDS011;65257;52.104;4.268;2023-07-08T01:07:51;5.07;;;2.60;;
76423;SDS011;65257;52.104;4.268;2023-07-08T01:10:28;4.68;;;2.10;;
76423;SDS011;65257;52.104;4.268;2023-07-08T01:13:05;5.43;;;2.40;;
76423;SDS011;65257;52.104;4.268;2023-07-08T01:15:39;4.20;;;2.55;;
76423;SDS011;65257;52.104;4.268;2023-07-08T01:18:16;4.43;;;2.45;;
76423;SDS011;65257;52.104;4.268;2023-07-08T01:20:47;5.78;;;2.83;;
76423;SDS011;65257;52.104;4.268;2023-07-08T01:23:13;4.35;;;2.20;;
76423;SDS011;65257;52.104;4.268;2023-07-08T01:25:40;4.53;;;2.30;;
76423;SDS011;65257;52.104;4.268;2023-07-08T01:28:19;5.40;;;2.28;;
76423;SDS011;65257;52.104;4.268;2023-07-08T01:30:48;4.70;;;2.40;;
76423;SDS011;65257;52.104;4.268;2023-07-08T01:33:27;6.45;;;2.40;;
76423;SDS011;65257;52.104;4.268;2023-07-08T01:35:55;6.40;;;2.60;;
76423;SDS011;65257;52.104;4.268;2023-07-08T01:38:24;4.40;;;1.90;;
76423;SDS011;65257;52.104;4.268;2023-07-08T01:40:55;6.82;;;2.40;;
76423;SDS011;65257;52.104;4.268;2023-07-08T01:43:22;5.07;;;2.45;;
76423;SDS011;65257;52.104;4.268;2023-07-08T01:45:48;5.07;;;2.30;;
76423;SDS011;65257;52.104;4.268;2023-07-08T01:48:18;4.05;;;2.17;;
76423;SDS011;65257;52.104;4.268;2023-07-08T01:53:22;5.10;;;2.30;;
76423;SDS011;65257;52.104;4.268;2023-07-08T01:55:53;4.32;;;2.80;;
76423;SDS011;65257;52.104;4.268;2023-07-08T01:58:18;5.03;;;2.55;;
76423;SDS011;65257;52.104;4.268;2023-07-08T02:00:50;7.47;;;2.78;;
76423;SDS011;65257;52.104;4.268;2023-07-08T02:03:19;6.15;;;2.85;;
76423;SDS011;65257;52.104;4.268;2023-07-08T02:05:50;5.90;;;2.58;;
76423;SDS011;65257;52.104;4.268;2023-07-08T02:08:19;5.28;;;2.53;;
76423;SDS011;65257;52.104;4.268;2023-07-08T02:10:49;4.35;;;2.22;;
76423;SDS011;65257;52.104;4.268;2023-07-08T02:13:16;5.20;;;2.63;;
76423;SDS011;65257;52.104;4.268;2023-07-08T02:15:46;4.20;;;2.35;;
76423;SDS011;65257;52.104;4.268;2023-07-08T02:18:21;4.07;;;2.50;;
76423;SDS011;65257;52.104;4.268;2023-07-08T02:20:52;5.63;;;2.80;;
76423;SDS011;65257;52.104;4.268;2023-07-08T02:23:18;4.20;;;2.08;;
76423;SDS011;65257;52.104;4.268;2023-07-08T02:25:56;4.80;;;2.95;;
76423;SDS011;65257;52.104;4.268;2023-07-08T02:28:22;4.18;;;2.63;;
76423;SDS011;65257;52.104;4.268;2023-07-08T02:30:49;7.82;;;3.35;;
76423;SDS011;65257;52.104;4.268;2023-07-08T02:33:16;4.18;;;2.42;;
76423;SDS011;65257;52.104;4.268;2023-07-08T02:35:44;4.30;;;2.20;;
76423;SDS011;65257;52.104;4.268;2023-07-08T02:38:14;5.15;;;2.83;;
76423;SDS011;65257;52.104;4.268;2023-07-08T02:40:42;5.80;;;2.53;;
76423;SDS011;65257;52.104;4.268;2023-07-08T02:43:08;4.72;;;2.63;;
76423;SDS011;65257;52.104;4.268;2023-07-08T02:45:33;5.63;;;2.55;;
76423;SDS011;65257;52.104;4.268;2023-07-08T02:47:59;6.28;;;2.92;;
76423;SDS011;65257;52.104;4.268;2023-07-08T02:50:25;4.90;;;3.13;;
76423;SDS011;65257;52.104;4.268;2023-07-08T02:52:56;4.75;;;3.10;;
76423;SDS011;65257;52.104;4.268;2023-07-08T02:55:22;5.93;;;3.25;;
76423;SDS011;65257;52.104;4.268;2023-07-08T02:57:48;5.25;;;2.70;;
76423;SDS011;65257;52.104;4.268;2023-07-08T03:00:14;5.28;;;2.78;;
76423;SDS011;65257;52.104;4.268;2023-07-08T03:02:44;6.68;;;3.03;;
76423;SDS011;65257;52.104;4.268;2023-07-08T03:05:13;5.30;;;2.90;;
76423;SDS011;65257;52.104;4.268;2023-07-08T03:07:38;6.07;;;3.28;;
76423;SDS011;65257;52.104;4.268;2023-07-08T03:10:07;4.72;;;2.85;;
76423;SDS011;65257;52.104;4.268;2023-07-08T03:12:34;5.22;;;2.95;;
76423;SDS011;65257;52.104;4.268;2023-07-08T03:15:00;3.72;;;2.15;;
76423;SDS011;65257;52.104;4.268;2023-07-08T03:17:30;7.75;;;2.85;;
76423;SDS011;65257;52.104;4.268;2023-07-08T03:19:56;7.70;;;3.38;;
76423;SDS011;65257;52.104;4.268;2023-07-08T03:22:24;5.10;;;3.22;;
76423;SDS011;65257;52.104;4.268;2023-07-08T03:24:50;6.40;;;3.10;;
76423;SDS011;65257;52.104;4.268;2023-07-08T03:27:16;7.10;;;3.95;;
76423;SDS011;65257;52.104;4.268;2023-07-08T03:29:43;5.60;;;3.42;;
76423;SDS011;65257;52.104;4.268;2023-07-08T03:32:12;4.55;;;2.75;;
76423;SDS011;65257;52.104;4.268;2023-07-08T03:34:48;5.15;;;2.80;;
76423;SDS011;65257;52.104;4.268;2023-07-08T03:37:14;4.80;;;2.65;;
76423;SDS011;65257;52.104;4.268;2023-07-08T03:39:40;4.80;;;3.10;;
76423;SDS011;65257;52.104;4.268;2023-07-08T03:42:06;5.40;;;2.95;;
76423;SDS011;65257;52.104;4.268;2023-07-08T03:44:33;3.80;;;2.47;;
76423;SDS011;65257;52.104;4.268;2023-07-08T03:46:58;9.75;;;2.92;;
76423;SDS011;65257;52.104;4.268;2023-07-08T03:49:25;9.98;;;3.05;;
76423;SDS011;65257;52.104;4.268;2023-07-08T03:51:56;6.28;;;3.25;;
76423;SDS011;65257;52.104;4.268;2023-07-08T03:54:23;7.57;;;3.03;;
76423;SDS011;65257;52.104;4.268;2023-07-08T03:56:50;7.07;;;3.83;;
76423;SDS011;65257;52.104;4.268;2023-07-08T03:59:19;5.10;;;3.05;;
76423;SDS011;65257;52.104;4.268;2023-07-08T04:01:47;5.22;;;3.13;;
76423;SDS011;65257;52.104;4.268;2023-07-08T04:04:14;6.53;;;3.42;;
76423;SDS011;65257;52.104;4.268;2023-07-08T04:06:43;5.30;;;3.47;;
76423;SDS011;65257;52.104;4.268;2023-07-08T04:09:12;5.70;;;3.13;;
76423;SDS011;65257;52.104;4.268;2023-07-08T04:11:39;6.50;;;3.38;;
76423;SDS011;65257;52.104;4.268;2023-07-08T04:14:04;6.70;;;3.53;;
76423;SDS011;65257;52.104;4.268;2023-07-08T04:16:43;6.13;;;3.25;;
76423;SDS011;65257;52.104;4.268;2023-07-08T04:19:15;5.18;;;3.10;;
76423;SDS011;65257;52.104;4.268;2023-07-08T04:21:41;8.38;;;2.95;;
76423;SDS011;65257;52.104;4.268;2023-07-08T04:24:10;6.20;;;3.33;;
76423;SDS011;65257;52.104;4.268;2023-07-08T04:26:38;6.57;;;3.60;;
76423;SDS011;65257;52.104;4.268;2023-07-08T04:29:24;5.63;;;3.13;;
76423;SDS011;65257;52.104;4.268;2023-07-08T04:31:54;5.72;;;3.50;;
76423;SDS011;65257;52.104;4.268;2023-07-08T04:34:20;5.97;;;3.30;;
76423;SDS011;65257;52.104;4.268;2023-07-08T04:36:46;6.85;;;3.35;;
76423;SDS011;65257;52.104;4.268;2023-07-08T04:39:19;7.82;;;3.20;;
76423;SDS011;65257;52.104;4.268;2023-07-08T04:41:51;5.55;;;3.28;;
76423;SDS011;65257;52.104;4.268;2023-07-08T04:44:18;10.98;;;3.63;;
76423;SDS011;65257;52.104;4.268;2023-07-08T04:46:49;6.60;;;4.05;;
76423;SDS011;65257;52.104;4.268;2023-07-08T04:49:24;4.90;;;3.10;;
76423;SDS011;65257;52.104;4.268;2023-07-08T04:51:57;5.80;;;3.15;;
76423;SDS011;65257;52.104;4.268;2023-07-08T04:54:24;5.22;;;3.28;;
76423;SDS011;65257;52.104;4.268;2023-07-08T04:56:56;6.35;;;3.20;;
76423;SDS011;65257;52.104;4.268;2023-07-08T04:59:24;5.75;;;3.28;;
76423;SDS011;65257;52.104;4.268;2023-07-08T05:01:52;5.25;;;3.58;;
76423;SDS011;65257;52.104;4.268;2023-07-08T05:04:20;5.03;;;3.05;;
76423;SDS011;65257;52.104;4.268;2023-07-08T05:06:47;4.57;;;3.25;;
76423;SDS011;65257;52.104;4.268;2023-07-08T05:09:14;5.57;;;4.15;;
76423;SDS011;65257;52.104;4.268;2023-07-08T05:11:40;6.20;;;3.30;;
76423;SDS011;65257;52.104;4.268;2023-07-08T05:14:06;5.82;;;3.47;;
76423;SDS011;65257;52.104;4.268;2023-07-08T05:16:32;6.25;;;3.42;;
76423;SDS011;65257;52.104;4.268;2023-07-08T05:19:06;4.97;;;3.00;;
76423;SDS011;65257;52.104;4.268;2023-07-08T05:21:35;9.13;;;3.40;;
76423;SDS011;65257;52.104;4.268;2023-07-08T05:24:06;4.97;;;3.17;;
76423;SDS011;65257;52.104;4.268;2023-07-08T05:26:36;5.72;;;3.00;;
76423;SDS011;65257;52.104;4.268;2023-07-08T05:29:02;7.35;;;3.58;;
76423;SDS011;65257;52.104;4.268;2023-07-08T05:31:30;5.85;;;3.53;;
76423;SDS011;65257;52.104;4.268;2023-07-08T05:33:58;6.57;;;3.08;;
76423;SDS011;65257;52.104;4.268;2023-07-08T05:36:25;6.47;;;3.25;;
76423;SDS011;65257;52.104;4.268;2023-07-08T05:38:50;4.72;;;3.20;;
76423;SDS011;65257;52.104;4.268;2023-07-08T05:41:16;4.80;;;3.40;;
76423;SDS011;65257;52.104;4.268;2023-07-08T05:43:42;5.93;;;3.13;;
76423;SDS011;65257;52.104;4.268;2023-07-08T05:46:09;6.18;;;3.30;;
76423;SDS011;65257;52.104;4.268;2023-07-08T05:48:42;7.20;;;3.40;;
76423;SDS011;65257;52.104;4.268;2023-07-08T05:51:07;5.47;;;3.30;;
76423;SDS011;65257;52.104;4.268;2023-07-08T05:53:36;5.95;;;3.42;;
76423;SDS011;65257;52.104;4.268;2023-07-08T05:56:11;5.70;;;2.95;;
76423;SDS011;65257;52.104;4.268;2023-07-08T05:58:41;5.97;;;3.22;;
76423;SDS011;65257;52.104;4.268;2023-07-08T06:01:09;5.22;;;3.60;;
76423;SDS011;65257;52.104;4.268;2023-07-08T06:03:40;6.43;;;3.22;;
76423;SDS011;65257;52.104;4.268;2023-07-08T06:06:08;5.10;;;3.38;;
76423;SDS011;65257;52.104;4.268;2023-07-08T06:08:40;5.07;;;3.42;;
76423;SDS011;65257;52.104;4.268;2023-07-08T06:11:08;5.38;;;3.35;;
76423;SDS011;65257;52.104;4.268;2023-07-08T06:13:36;6.20;;;3.15;;
76423;SDS011;65257;52.104;4.268;2023-07-08T06:16:06;6.50;;;3.28;;
76423;SDS011;65257;52.104;4.268;2023-07-08T06:18:35;7.25;;;3.60;;
76423;SDS011;65257;52.104;4.268;2023-07-08T06:21:02;6.35;;;3.38;;
76423;SDS011;65257;52.104;4.268;2023-07-08T06:23:28;4.80;;;3.00;;
76423;SDS011;65257;52.104;4.268;2023-07-08T06:25:54;6.38;;;3.22;;
76423;SDS011;65257;52.104;4.268;2023-07-08T06:28:20;5.45;;;3.03;;
76423;SDS011;65257;52.104;4.268;2023-07-08T06:30:46;5.13;;;3.30;;
76423;SDS011;65257;52.104;4.268;2023-07-08T06:33:12;5.13;;;3.10;;
76423;SDS011;65257;52.104;4.268;2023-07-08T06:35:38;5.90;;;3.22;;
76423;SDS011;65257;52.104;4.268;2023-07-08T06:38:07;8.23;;;3.03;;
76423;SDS011;65257;52.104;4.268;2023-07-08T06:40:33;5.72;;;3.30;;
76423;SDS011;65257;52.104;4.268;2023-07-08T06:43:04;4.85;;;3.22;;
76423;SDS011;65257;52.104;4.268;2023-07-08T06:45:32;6.45;;;3.22;;
76423;SDS011;65257;52.104;4.268;2023-07-08T06:48:00;4.80;;;3.22;;
76423;SDS011;65257;52.104;4.268;2023-07-08T06:50:28;4.43;;;3.10;;
76423;SDS011;65257;52.104;4.268;2023-07-08T06:52:54;6.70;;;3.63;;
76423;SDS011;65257;52.104;4.268;2023-07-08T06:55:25;5.97;;;2.97;;
76423;SDS011;65257;52.104;4.268;2023-07-08T06:58:00;6.50;;;3.38;;
76423;SDS011;65257;52.104;4.268;2023-07-08T07:00:45;5.57;;;3.72;;
76423;SDS011;65257;52.104;4.268;2023-07-08T07:03:19;6.22;;;3.30;;
76423;SDS011;65257;52.104;4.268;2023-07-08T07:06:06;7.28;;;3.17;;
76423;SDS011;65257;52.104;4.268;2023-07-08T07:08:38;6.60;;;3.17;;
76423;SDS011;65257;52.104;4.268;2023-07-08T07:11:16;5.07;;;3.08;;
76423;SDS011;65257;52.104;4.268;2023-07-08T07:13:44;6.45;;;3.83;;
76423;SDS011;65257;52.104;4.268;2023-07-08T07:16:13;5.47;;;3.10;;
76423;SDS011;65257;52.104;4.268;2023-07-08T07:18:39;7.93;;;3.30;;
76423;SDS011;65257;52.104;4.268;2023-07-08T07:21:05;4.55;;;2.97;;
76423;SDS011;65257;52.104;4.268;2023-07-08T07:23:34;5.85;;;3.45;;
76423;SDS011;65257;52.104;4.268;2023-07-08T07:26:00;6.00;;;3.05;;
76423;SDS011;65257;52.104;4.268;2023-07-08T07:28:26;6.72;;;3.38;;
76423;SDS011;65257;52.104;4.268;2023-07-08T07:30:58;5.57;;;2.75;;
76423;SDS011;65257;52.104;4.268;2023-07-08T07:33:26;7.07;;;3.58;;
76423;SDS011;65257;52.104;4.268;2023-07-08T07:35:52;7.38;;;4.15;;
76423;SDS011;65257;52.104;4.268;2023-07-08T07:38:21;5.28;;;3.67;;
76423;SDS011;65257;52.104;4.268;2023-07-08T07:40:56;6.13;;;3.80;;
76423;SDS011;65257;52.104;4.268;2023-07-08T07:43:22;7.43;;;3.03;;
76423;SDS011;65257;52.104;4.268;2023-07-08T07:45:51;7.93;;;3.78;;
76423;SDS011;65257;52.104;4.268;2023-07-08T07:48:23;6.10;;;3.70;;
76423;SDS011;65257;52.104;4.268;2023-07-08T07:50:53;7.28;;;3.33;;
76423;SDS011;65257;52.104;4.268;2023-07-08T07:53:22;6.53;;;3.67;;
76423;SDS011;65257;52.104;4.268;2023-07-08T07:56:11;6.75;;;3.42;;
76423;SDS011;65257;52.104;4.268;2023-07-08T07:58:39;7.05;;;3.78;;
76423;SDS011;65257;52.104;4.268;2023-07-08T08:01:09;7.35;;;4.05;;
76423;SDS011;65257;52.104;4.268;2023-07-08T08:03:43;7.03;;;3.83;;
76423;SDS011;65257;52.104;4.268;2023-07-08T08:06:08;7.72;;;3.72;;
76423;SDS011;65257;52.104;4.268;2023-07-08T08:08:34;6.28;;;3.50;;
76423;SDS011;65257;52.104;4.268;2023-07-08T08:11:02;6.30;;;3.13;;
76423;SDS011;65257;52.104;4.268;2023-07-08T08:13:28;6.80;;;3.47;;
76423;SDS011;65257;52.104;4.268;2023-07-08T08:16:01;5.65;;;4.38;;
76423;SDS011;65257;52.104;4.268;2023-07-08T08:18:33;6.95;;;3.55;;
76423;SDS011;65257;52.104;4.268;2023-07-08T08:21:00;6.88;;;3.70;;
76423;SDS011;65257;52.104;4.268;2023-07-08T08:23:25;6.13;;;3.60;;
76423;SDS011;65257;52.104;4.268;2023-07-08T08:25:51;7.05;;;3.00;;
76423;SDS011;65257;52.104;4.268;2023-07-08T08:28:19;6.55;;;3.78;;
76423;SDS011;65257;52.104;4.268;2023-07-08T08:30:50;7.40;;;3.72;;
76423;SDS011;65257;52.104;4.268;2023-07-08T08:33:28;8.70;;;4.28;;
76423;SDS011;65257;52.104;4.268;2023-07-08T08:35:53;6.00;;;3.40;;
76423;SDS011;65257;52.104;4.268;2023-07-08T08:38:19;6.88;;;3.70;;
76423;SDS011;65257;52.104;4.268;2023-07-08T08:40:48;6.38;;;3.97;;
76423;SDS011;65257;52.104;4.268;2023-07-08T08:43:34;7.35;;;3.78;;
76423;SDS011;65257;52.104;4.268;2023-07-08T08:46:16;8.50;;;4.15;;
76423;SDS011;65257;52.104;4.268;2023-07-08T08:49:05;5.00;;;3.45;;
76423;SDS011;65257;52.104;4.268;2023-07-08T08:51:48;6.68;;;3.38;;
76423;SDS011;65257;52.104;4.268;2023-07-08T08:54:23;9.18;;;3.38;;
76423;SDS011;65257;52.104;4.268;2023-07-08T08:57:11;7.13;;;3.80;;
76423;SDS011;65257;52.104;4.268;2023-07-08T08:59:55;8.00;;;3.83;;
76423;SDS011;65257;52.104;4.268;2023-07-08T09:05:20;6.85;;;3.45;;
76423;SDS011;65257;52.104;4.268;2023-07-08T09:07:59;5.80;;;3.60;;
76423;SDS011;65257;52.104;4.268;2023-07-08T09:10:48;5.95;;;3.65;;
76423;SDS011;65257;52.104;4.268;2023-07-08T09:13:34;6.80;;;3.67;;
76423;SDS011;65257;52.104;4.268;2023-07-08T09:19:26;6.45;;;3.75;;
76423;SDS011;65257;52.104;4.268;2023-07-08T09:22:13;5.00;;;3.17;;
76423;SDS011;65257;52.104;4.268;2023-07-08T09:24:49;5.60;;;3.55;;
76423;SDS011;65257;52.104;4.268;2023-07-08T09:27:19;6.20;;;3.78;;
76423;SDS011;65257;52.104;4.268;2023-07-08T09:29:45;6.00;;;3.85;;
76423;SDS011;65257;52.104;4.268;2023-07-08T09:32:19;7.30;;;3.90;;
76423;SDS011;65257;52.104;4.268;2023-07-08T09:34:50;7.35;;;3.83;;
76423;SDS011;65257;52.104;4.268;2023-07-08T09:37:30;8.48;;;3.80;;
76423;SDS011;65257;52.104;4.268;2023-07-08T09:40:17;7.50;;;4.22;;
76423;SDS011;65257;52.104;4.268;2023-07-08T09:42:54;6.50;;;4.03;;
76423;SDS011;65257;52.104;4.268;2023-07-08T09:45:27;6.50;;;3.53;;
76423;SDS011;65257;52.104;4.268;2023-07-08T09:48:25;8.73;;;5.05;;
76423;SDS011;65257;52.104;4.268;2023-07-08T09:50:58;7.55;;;3.92;;
76423;SDS011;65257;52.104;4.268;2023-07-08T09:53:25;9.20;;;4.38;;
76423;SDS011;65257;52.104;4.268;2023-07-08T09:55:52;6.32;;;3.63;;
76423;SDS011;65257;52.104;4.268;2023-07-08T09:58:31;6.55;;;4.00;;
76423;SDS011;65257;52.104;4.268;2023-07-08T10:01:10;6.93;;;4.20;;
76423;SDS011;65257;52.104;4.268;2023-07-08T10:03:59;8.25;;;4.25;;
76423;SDS011;65257;52.104;4.268;2023-07-08T10:06:32;6.53;;;3.65;;
76423;SDS011;65257;52.104;4.268;2023-07-08T10:09:14;5.97;;;3.80;;
76423;SDS011;65257;52.104;4.268;2023-07-08T10:11:54;7.65;;;4.03;;
76423;SDS011;65257;52.104;4.268;2023-07-08T10:14:41;5.50;;;3.85;;
76423;SDS011;65257;52.104;4.268;2023-07-08T10:17:19;6.18;;;3.70;;
76423;SDS011;65257;52.104;4.268;2023-07-08T10:19:49;9.15;;;4.25;;
76423;SDS011;65257;52.104;4.268;2023-07-08T10:22:22;5.90;;;3.92;;
76423;SDS011;65257;52.104;4.268;2023-07-08T10:30:51;7.93;;;3.83;;
76423;SDS011;65257;52.104;4.268;2023-07-08T10:36:48;8.23;;;4.25;;
76423;SDS011;65257;52.104;4.268;2023-07-08T10:45:27;6.40;;;3.95;;
76423;SDS011;65257;52.104;4.268;2023-07-08T11:00:49;6.70;;;5.60;;
76423;SDS011;65257;52.104;4.268;2023-07-08T11:09:27;5.38;;;3.70;;
76423;SDS011;65257;52.104;4.268;2023-07-08T11:12:26;6.93;;;4.22;;
76423;SDS011;65257;52.104;4.268;2023-07-08T11:30:17;6.72;;;4.25;;
76423;SDS011;65257;52.104;4.268;2023-07-08T11:32:58;8.18;;;4.63;;
76423;SDS011;65257;52.104;4.268;2023-07-08T11:38:19;7.50;;;3.17;;
76423;SDS011;65257;52.104;4.268;2023-07-08T11:41:11;8.77;;;4.55;;
76423;SDS011;65257;52.104;4.268;2023-07-08T11:43:52;6.47;;;4.53;;
76423;SDS011;65257;52.104;4.268;2023-07-08T11:46:26;10.18;;;4.75;;
76423;SDS011;65257;52.104;4.268;2023-07-08T11:51:41;6.78;;;3.70;;
76423;SDS011;65257;52.104;4.268;2023-07-08T11:54:34;5.53;;;3.50;;
76423;SDS011;65257;52.104;4.268;2023-07-08T11:58:07;6.53;;;4.00;;
76423;SDS011;65257;52.104;4.268;2023-07-08T12:00:58;6.63;;;4.07;;
76423;SDS011;65257;52.104;4.268;2023-07-08T12:03:54;8.63;;;4.10;;
76423;SDS011;65257;52.104;4.268;2023-07-08T12:09:00;7.85;;;4.63;;
76423;SDS011;65257;52.104;4.268;2023-07-08T12:11:50;8.63;;;4.72;;
76423;SDS011;65257;52.104;4.268;2023-07-08T12:14:25;7.32;;;4.53;;
76423;SDS011;65257;52.104;4.268;2023-07-08T12:16:57;7.03;;;4.93;;
76423;SDS011;65257;52.104;4.268;2023-07-08T12:19:27;7.38;;;5.05;;
76423;SDS011;65257;52.104;4.268;2023-07-08T12:22:08;10.93;;;5.68;;
76423;SDS011;65257;52.104;4.268;2023-07-08T12:24:39;10.27;;;5.00;;
76423;SDS011;65257;52.104;4.268;2023-07-08T12:27:12;9.07;;;5.00;;
76423;SDS011;65257;52.104;4.268;2023-07-08T12:29:40;7.68;;;4.85;;
76423;SDS011;65257;52.104;4.268;2023-07-08T12:32:10;15.55;;;5.57;;
76423;SDS011;65257;52.104;4.268;2023-07-08T12:34:52;8.45;;;5.20;;
76423;SDS011;65257;52.104;4.268;2023-07-08T12:37:18;8.95;;;6.07;;
76423;SDS011;65257;52.104;4.268;2023-07-08T12:39:57;8.52;;;5.13;;
76423;SDS011;65257;52.104;4.268;2023-07-08T12:42:31;10.60;;;6.80;;
76423;SDS011;65257;52.104;4.268;2023-07-08T12:44:59;10.38;;;6.10;;
76423;SDS011;65257;52.104;4.268;2023-07-08T12:47:49;12.43;;;7.32;;
76423;SDS011;65257;52.104;4.268;2023-07-08T12:50:37;11.20;;;7.13;;
76423;SDS011;65257;52.104;4.268;2023-07-08T12:53:15;12.63;;;6.28;;
76423;SDS011;65257;52.104;4.268;2023-07-08T12:55:43;9.82;;;6.35;;
76423;SDS011;65257;52.104;4.268;2023-07-08T13:01:23;10.75;;;5.50;;
76423;SDS011;65257;52.104;4.268;2023-07-08T13:03:55;13.90;;;7.10;;
76423;SDS011;65257;52.104;4.268;2023-07-08T13:06:25;10.48;;;6.55;;
76423;SDS011;65257;52.104;4.268;2023-07-08T13:09:06;13.25;;;6.38;;
76423;SDS011;65257;52.104;4.268;2023-07-08T13:11:55;11.43;;;6.18;;
76423;SDS011;65257;52.104;4.268;2023-07-08T13:14:29;9.30;;;5.53;;
76423;SDS011;65257;52.104;4.268;2023-07-08T13:16:55;11.18;;;5.93;;
76423;SDS011;65257;52.104;4.268;2023-07-08T13:19:23;10.85;;;5.93;;
76423;SDS011;65257;52.104;4.268;2023-07-08T13:22:24;12.00;;;6.25;;
76423;SDS011;65257;52.104;4.268;2023-07-08T13:25:00;10.27;;;6.05;;
76423;SDS011;65257;52.104;4.268;2023-07-08T13:27:28;14.60;;;6.97;;
76423;SDS011;65257;52.104;4.268;2023-07-08T13:30:14;12.60;;;6.57;;
76423;SDS011;65257;52.104;4.268;2023-07-08T13:32:59;15.13;;;6.93;;
76423;SDS011;65257;52.104;4.268;2023-07-08T13:41:04;14.75;;;6.68;;
76423;SDS011;65257;52.104;4.268;2023-07-08T13:43:36;13.25;;;7.70;;
76423;SDS011;65257;52.104;4.268;2023-07-08T13:46:30;12.48;;;7.80;;
76423;SDS011;65257;52.104;4.268;2023-07-08T13:49:02;17.67;;;8.70;;
76423;SDS011;65257;52.104;4.268;2023-07-08T13:51:41;15.13;;;9.05;;
76423;SDS011;65257;52.104;4.268;2023-07-08T13:57:00;16.20;;;10.65;;
76423;SDS011;65257;52.104;4.268;2023-07-08T13:59:33;16.67;;;9.30;;
76423;SDS011;65257;52.104;4.268;2023-07-08T14:02:22;14.27;;;10.35;;
76423;SDS011;65257;52.104;4.268;2023-07-08T14:04:56;12.27;;;10.75;;
76423;SDS011;65257;52.104;4.268;2023-07-08T14:07:53;16.65;;;11.32;;
76423;SDS011;65257;52.104;4.268;2023-07-08T14:10:22;17.95;;;11.50;;
76423;SDS011;65257;52.104;4.268;2023-07-08T14:12:50;16.92;;;11.88;;
76423;SDS011;65257;52.104;4.268;2023-07-08T14:15:19;15.70;;;10.93;;
76423;SDS011;65257;52.104;4.268;2023-07-08T14:17:46;12.90;;;9.25;;
76423;SDS011;65257;52.104;4.268;2023-07-08T14:20:24;16.00;;;10.82;;
76423;SDS011;65257;52.104;4.268;2023-07-08T14:23:10;19.30;;;11.80;;
76423;SDS011;65257;52.104;4.268;2023-07-08T14:25:43;18.27;;;11.55;;
76423;SDS011;65257;52.104;4.268;2023-07-08T14:28:14;13.52;;;9.82;;
76423;SDS011;65257;52.104;4.268;2023-07-08T14:31:33;15.38;;;9.82;;
76423;SDS011;65257;52.104;4.268;2023-07-08T14:34:11;17.55;;;9.65;;
76423;SDS011;65257;52.104;4.268;2023-07-08T14:36:52;15.90;;;10.73;;
76423;SDS011;65257;52.104;4.268;2023-07-08T14:39:55;15.52;;;9.23;;
76423;SDS011;65257;52.104;4.268;2023-07-08T14:42:33;13.35;;;8.77;;
76423;SDS011;65257;52.104;4.268;2023-07-08T14:44:59;14.00;;;9.15;;
76423;SDS011;65257;52.104;4.268;2023-07-08T14:47:36;16.23;;;10.05;;
76423;SDS011;65257;52.104;4.268;2023-07-08T14:50:09;15.50;;;10.23;;
76423;SDS011;65257;52.104;4.268;2023-07-08T14:52:47;17.92;;;11.20;;
76423;SDS011;65257;52.104;4.268;2023-07-08T14:55:13;18.92;;;10.65;;
76423;SDS011;65257;52.104;4.268;2023-07-08T14:57:46;16.73;;;11.27;;
76423;SDS011;65257;52.104;4.268;2023-07-08T15:00:36;20.55;;;10.23;;
76423;SDS011;65257;52.104;4.268;2023-07-08T15:04:16;15.30;;;10.30;;
76423;SDS011;65257;52.104;4.268;2023-07-08T15:07:21;13.07;;;9.38;;
76423;SDS011;65257;52.104;4.268;2023-07-08T15:09:59;14.30;;;9.07;;
76423;SDS011;65257;52.104;4.268;2023-07-08T15:13:28;16.40;;;10.65;;
76423;SDS011;65257;52.104;4.268;2023-07-08T15:16:34;16.17;;;11.13;;
76423;SDS011;65257;52.104;4.268;2023-07-08T15:20:10;13.95;;;10.85;;
76423;SDS011;65257;52.104;4.268;2023-07-08T15:23:32;14.25;;;10.50;;
76423;SDS011;65257;52.104;4.268;2023-07-08T15:26:29;15.73;;;11.30;;
76423;SDS011;65257;52.104;4.268;2023-07-08T15:29:22;17.77;;;11.45;;
76423;SDS011;65257;52.104;4.268;2023-07-08T15:32:01;15.55;;;11.93;;
76423;SDS011;65257;52.104;4.268;2023-07-08T15:35:32;15.93;;;10.98;;
76423;SDS011;65257;52.104;4.268;2023-07-08T15:38:42;18.35;;;11.75;;
76423;SDS011;65257;52.104;4.268;2023-07-08T15:41:41;17.40;;;10.88;;
76423;SDS011;65257;52.104;4.268;2023-07-08T15:44:35;15.00;;;11.25;;
76423;SDS011;65257;52.104;4.268;2023-07-08T15:47:39;13.43;;;10.65;;
76423;SDS011;65257;52.104;4.268;2023-07-08T15:50:20;19.83;;;11.60;;
76423;SDS011;65257;52.104;4.268;2023-07-08T15:53:16;17.83;;;12.00;;
76423;SDS011;65257;52.104;4.268;2023-07-08T15:55:45;18.35;;;11.57;;
76423;SDS011;65257;52.104;4.268;2023-07-08T15:58:32;17.83;;;11.63;;
76423;SDS011;65257;52.104;4.268;2023-07-08T16:01:04;17.10;;;11.88;;
76423;SDS011;65257;52.104;4.268;2023-07-08T16:03:31;24.70;;;12.15;;
76423;SDS011;65257;52.104;4.268;2023-07-08T16:06:10;17.20;;;11.48;;
76423;SDS011;65257;52.104;4.268;2023-07-08T16:08:44;19.20;;;11.52;;
76423;SDS011;65257;52.104;4.268;2023-07-08T16:11:37;14.27;;;10.30;;
76423;SDS011;65257;52.104;4.268;2023-07-08T16:14:16;13.93;;;10.18;;
76423;SDS011;65257;52.104;4.268;2023-07-08T16:16:50;14.95;;;10.48;;
76423;SDS011;65257;52.104;4.268;2023-07-08T16:19:16;14.95;;;10.40;;
76423;SDS011;65257;52.104;4.268;2023-07-08T16:21:56;16.17;;;9.82;;
76423;SDS011;65257;52.104;4.268;2023-07-08T16:24:37;12.02;;;9.88;;
76423;SDS011;65257;52.104;4.268;2023-07-08T16:27:11;14.38;;;9.40;;
76423;SDS011;65257;52.104;4.268;2023-07-08T16:30:01;14.80;;;9.38;;
76423;SDS011;65257;52.104;4.268;2023-07-08T16:32:30;14.95;;;10.02;;
76423;SDS011;65257;52.104;4.268;2023-07-08T16:35:20;15.25;;;9.63;;
76423;SDS011;65257;52.104;4.268;2023-07-08T16:38:10;12.30;;;9.02;;
76423;SDS011;65257;52.104;4.268;2023-07-08T16:40:51;17.33;;;10.57;;
76423;SDS011;65257;52.104;4.268;2023-07-08T16:43:30;18.50;;;10.57;;
76423;SDS011;65257;52.104;4.268;2023-07-08T16:45:58;16.20;;;10.50;;
76423;SDS011;65257;52.104;4.268;2023-07-08T16:48:27;17.48;;;11.43;;
76423;SDS011;65257;52.104;4.268;2023-07-08T16:51:24;20.27;;;11.23;;